• Join FlightAware (Why Join?)
  • Login
  • US Flag 
07:51PM EST


 

Airport Tracker/Info


-or-


 

Live Flight TrackerFlight Track Log ✈ SWA232 ✈ 25-Apr-2013 ✈ KMHT - KMDW

Flight Track Log - Related Links

Times and Time Zones

All times are in EDT time to prevent confusion due to time zone crossing. See the SWA232 flight status page for this flight to view local times or setup timezone preferences in your user account.

Time Position Orientation Groundspeed Altitude Reporting Facility
EDT Latitude Longitude Course Direction KTS MPH feet Rate Location/Type
06:53AM 42.9500 -71.4333 324° Northwest 160 184 1,400  Level KA90
06:53AM 42.9667 -71.4500 324° Northwest 159 183 2,100 2,520 Climbing KA90
06:54AM 43.0167 -71.4667 346° North 202 232 5,000 2,520 Climbing KA90
06:55AM 43.0319 -71.4772 333° Northwest 219 252 5,600 2,700 Climbing Boston Center
06:56AM 43.1008 -71.5017 345° North 245 282 8,500 3,180 Climbing Boston Center
06:57AM 43.1533 -71.5492 327° Northwest 233 268 12,000 2,520 Climbing Boston Center
06:58AM 43.1625 -71.6289 279° West 196 226 13,600 1,800 Climbing Boston Center
06:59AM 43.1653 -71.7456 272° West 274 315 15,600 2,100 Climbing Boston Center
07:00AM 43.1681 -71.8678 272° West 315 362 17,800 2,100 Climbing Boston Center
07:01AM 43.1706 -71.9847 272° West 341 392 19,900 2,280 Climbing Boston Center
07:02AM 43.1731 -72.1183 272° West 351 404 22,400 2,100 Climbing Boston Center
07:03AM 43.1756 -72.2608 271° West 361 415 24,200 1,800 Climbing Boston Center
07:04AM 43.1778 -72.4089 271° West 373 429 26,000 2,100 Climbing Boston Center
07:05AM 43.1778 -72.5711 270° West 392 451 28,400 2,400 Climbing Boston Center
07:06AM 43.1817 -72.7133 272° West 392 451 30,900 1,860 Climbing Boston Center
07:07AM 43.1811 -72.8531 270° West 379 436 32,200 1,200 Climbing Boston Center
07:08AM 43.1828 -72.9925 271° West 374 430 33,400 900 Climbing Boston Center
07:09AM 43.1778 -73.1347 267° West 374 430 34,000 300 Climbing Boston Center
07:10AM 43.1706 -73.2714 266° West 374 430 34,000  Level Boston Center
07:11AM 43.1592 -73.3908 263° West 364 419 34,000  Level Boston Center
07:12AM 43.1517 -73.5300 266° West 364 419 34,000  Level Boston Center
07:13AM 43.1442 -73.6667 266° West 364 419 34,000  Level Boston Center
07:14AM 43.1319 -73.8200 264° West 370 426 34,000 -60 Level Boston Center
07:15AM 43.1261 -73.9506 267° West 364 419 33,900  Descending Boston Center
07:16AM 43.1158 -74.0869 264° West 364 419 34,000  Climbing Boston Center
07:17AM 43.1097 -74.2206 266° West 364 419 34,000  Level Boston Center
07:18AM 43.0992 -74.3594 264° West 364 419 34,000  Level Boston Center
07:19AM 43.0928 -74.4900 266° West 364 419 34,000  Level Boston Center
07:20AM 43.0817 -74.6261 264° West 364 419 34,000  Level Boston Center
07:21AM 43.0728 -74.7681 265° West 369 425 34,000  Level Boston Center
07:22AM 43.0636 -74.9069 265° West 369 425 34,000  Level Boston Center
07:23AM 43.0542 -75.0486 265° West 369 425 34,000  Level Boston Center
07:24AM 43.0425 -75.1931 264° West 380 437 34,000  Level Boston Center
07:25AM 43.0325 -75.3347 265° West 380 437 34,000  Level Boston Center
07:26AM 43.0206 -75.4789 264° West 385 443 34,000  Level Boston Center
07:27AM 43.0103 -75.6261 265° West 385 443 34,000 600 Level Boston Center
07:28AM 43.0000 -75.7675 264° West 385 443 35,300 960 Climbing Boston Center
07:29AM 42.9894 -75.9089 264° West 385 443 36,000 240 Climbing Boston Center
07:31AM 42.9692 -76.1506 264° West 381 438 36,000  Level Cleveland Center
07:32AM 42.9558 -76.2936 263° West 381 438 36,000  Level Cleveland Center
07:33AM 42.9464 -76.4303 265° West 381 438 36,000  Level Cleveland Center
07:34AM 42.9347 -76.5758 264° West 381 438 36,000  Level Cleveland Center
07:35AM 42.9208 -76.7186 262° West 381 438 36,000  Level Cleveland Center
07:36AM 42.9069 -76.8639 263° West 386 444 36,000  Level Cleveland Center
07:37AM 42.8947 -77.0064 263° West 391 450 36,000  Level Cleveland Center
07:38AM 42.8614 -77.1444 252° West 386 444 36,000  Level Cleveland Center
07:39AM 42.8192 -77.2711 246° West 381 438 36,000  Level Cleveland Center
07:40AM 42.7750 -77.4036 246° West 381 438 36,000  Level Cleveland Center
07:41AM 42.7325 -77.5331 246° West 381 438 36,000  Level Cleveland Center
07:42AM 42.6900 -77.6594 245° Southwest 387 445 36,000  Level Cleveland Center
07:43AM 42.6472 -77.7886 246° West 374 430 36,000  Level Cleveland Center
07:44AM 42.6006 -77.9289 246° West 367 422 36,000  Level Cleveland Center
07:45AM 42.5556 -78.0575 245° Southwest 367 422 36,000  Level Cleveland Center
07:46AM 42.5125 -78.1861 246° West 372 428 36,000  Level Cleveland Center
07:47AM 42.4711 -78.3114 246° West 372 428 36,000  Level Cleveland Center
07:48AM 42.4278 -78.4397 245° Southwest 372 428 36,000  Level Cleveland Center
07:49AM 42.3822 -78.5678 244° Southwest 372 428 36,000  Level Cleveland Center
07:50AM 42.3386 -78.6983 246° West 377 434 36,000  Level Cleveland Center
07:51AM 42.2947 -78.8258 245° Southwest 377 434 36,000  Level Cleveland Center
07:52AM 42.2486 -78.9506 243° Southwest 382 440 36,000  Level Cleveland Center
07:53AM 42.2044 -79.0781 245° Southwest 382 440 36,000  Level Cleveland Center
07:54AM 42.1686 -79.2019 249° West 382 440 36,000  Level Cleveland Center
07:55AM 42.1344 -79.3344 251° West 377 434 36,000  Level Cleveland Center
07:56AM 42.1006 -79.4639 251° West 371 427 36,000  Level Cleveland Center
07:57AM 42.0683 -79.5903 251° West 371 427 36,000  Level Cleveland Center
07:58AM 42.0358 -79.7164 251° West 365 420 36,000  Level Cleveland Center
07:59AM 41.9992 -79.8456 249° West 365 420 36,000  Level Cleveland Center
08:00AM 41.9667 -79.9744 251° West 371 427 36,000  Level Cleveland Center
08:01AM 41.9319 -80.1003 250° West 366 421 36,000  Level Cleveland Center
08:02AM 41.8969 -80.2289 250° West 366 421 36,000  Level Cleveland Center
08:03AM 41.8617 -80.3600 250° West 366 421 36,000  Level Cleveland Center
08:04AM 41.8286 -80.4856 251° West 371 427 36,000  Level Cleveland Center
08:05AM 41.7933 -80.6194 251° West 371 427 36,000  Level Cleveland Center
08:06AM 41.7556 -80.7475 248° West 371 427 36,000  Level Cleveland Center
08:07AM 41.7242 -80.8697 251° West 365 420 36,000  Level Cleveland Center
08:08AM 41.6944 -80.9781 250° West 358 412 36,000  Level Cleveland Center
08:09AM 41.6608 -81.0944 249° West 348 400 36,000  Level Cleveland Center
08:10AM 41.6267 -81.2164 249° West 353 406 36,000  Level Cleveland Center
08:11AM 41.5928 -81.3328 249° West 348 400 36,000  Level Cleveland Center
08:12AM 41.5606 -81.4544 251° West 348 400 36,000  Level Cleveland Center
08:13AM 41.5264 -81.5733 249° West 348 400 36,000  Level Cleveland Center
08:14AM 41.4917 -81.6947 249° West 348 400 36,000  Level Cleveland Center
08:15AM 41.4572 -81.8161 249° West 348 400 36,000  Level Cleveland Center
08:16AM 41.4244 -81.9372 250° West 348 400 36,000  Level Cleveland Center
08:17AM 41.4269 -82.0758 271° West 358 412 36,000  Level Cleveland Center
08:18AM 41.4314 -82.2117 273° West 368 423 36,000  Level Cleveland Center
08:19AM 41.4356 -82.3531 272° West 379 436 36,000  Level Cleveland Center
08:20AM 41.4392 -82.5083 272° West 384 442 36,000  Level Cleveland Center
08:21AM 41.4431 -82.6497 272° West 384 442 36,000  Level Cleveland Center
08:22AM 41.4467 -82.7883 272° West 384 442 36,000  Level Cleveland Center
08:23AM 41.4503 -82.9269 272° West 384 442 36,000  Level Cleveland Center
08:24AM 41.4536 -83.0683 272° West 384 442 36,000  Level Cleveland Center
08:25AM 41.4567 -83.2069 272° West 384 442 36,000  Level Cleveland Center
08:26AM 41.4594 -83.3483 272° West 384 442 36,000  Level Cleveland Center
08:27AM 41.4603 -83.4869 271° West 384 442 36,000  Level Cleveland Center
08:28AM 41.4650 -83.6286 273° West 384 442 36,000  Level Cleveland Center
08:29AM 41.4675 -83.7700 271° West 384 442 36,000  Level Cleveland Center
08:30AM 41.4675 -83.9114 270° West 384 442 36,000  Level Cleveland Center
08:31AM 41.4717 -84.0531 272° West 384 442 36,000  Level Cleveland Center
08:32AM 41.4714 -84.1917 270° West 384 442 36,000 -480 Level Cleveland Center
08:34AM 41.4792 -84.4542 272° West 377 434 34,600 -1,680 Descending Chicago Center
08:35AM 41.4797 -84.5947 270° West 379 436 31,000 -2,280 Descending Chicago Center
08:36AM 41.4836 -84.7350 272° West 378 435 30,000 -540 Descending Chicago Center
08:37AM 41.4906 -84.9039 273° West 380 437 30,000  Level Chicago Center
08:38AM 41.4956 -85.0458 273° West 383 441 30,000 -480 Level Chicago Center
08:39AM 41.4997 -85.1881 272° West 383 441 29,100 -1,740 Descending Chicago Center
08:40AM 41.5047 -85.3281 273° West 377 434 26,500 -2,460 Descending Chicago Center
08:41AM 41.5092 -85.4628 273° West 361 415 24,100 -1,740 Descending Chicago Center
08:42AM 41.5122 -85.5861 272° West 330 380 23,000 -1,080 Descending Chicago Center
08:43AM 41.5161 -85.7028 273° West 315 362 21,900 -1,080 Descending Chicago Center
08:44AM 41.5189 -85.8192 272° West 313 360 20,900 -1,320 Descending Chicago Center
08:45AM 41.5222 -85.9317 272° West 308 354 19,200 -1,920 Descending Chicago Center
08:46AM 41.5250 -86.0581 272° West 290 334 17,000 -2,040 Descending Chicago Center
08:47AM 41.5239 -86.1606 269° West 281 323 15,100 -1,800 Descending Chicago Center
08:48AM 41.5233 -86.2625 270° West 276 318 13,300 -1,800 Descending Chicago Center
08:49AM 41.5231 -86.3606 270° West 268 308 11,500 -1,320 Descending Chicago Center
08:50AM 41.5225 -86.4564 270° West 262 302 10,600 -780 Descending Chicago Center
08:51AM 41.5217 -86.5406 269° West 230 265 10,000 -300 Descending Chicago Center
08:52AM 41.5025 -86.6092 250° West 198 228 10,000  Level Chicago Center
08:53AM 41.4761 -86.6883 246° West 195 224 10,000  Level Chicago Center
08:54AM 41.4369 -86.7392 224° Southwest 198 228 10,000 -480 Level Chicago Center
08:55AM 41.4061 -86.7967 234° Southwest 197 227 9,100 -1,020 Descending Chicago Center
08:56AM 41.4292 -86.8658 294° West 206 237 8,000 -1,020 Descending Chicago Center
08:57AM 41.4492 -86.9325 292° West 199 229 7,000 -1,020 Descending Chicago Center
08:58AM 41.4731 -87.0136 291° West 197 227 6,000 -540 Descending Chicago Center
08:59AM 41.4931 -87.0797 292° West 194 223 6,000  Level Chicago Center
09:00AM 41.5131 -87.1467 292° West 194 223 6,000 60 Level Chicago Center
09:01AM 41.5167 -87.2000 275° West 194 223 6,100 60 Climbing Chicago TRACON
09:02AM 41.5167 -87.2667 270° West 193 222 6,100 -420 Level Chicago TRACON
09:03AM 41.5333 -87.3333 288° West 197 227 5,300 -900 Descending Chicago TRACON
09:04AM 41.5333 -87.4000 270° West 193 222 4,400 -900 Descending Chicago TRACON
09:04AM 41.5561 -87.4344 311° West 197 227 4,000 -300 Descending Chicago Center
09:05AM 41.5942 -87.4858 315° West 196 226 4,000  Level Chicago Center
09:07AM 41.6319 -87.5378 314° West 197 227 4,100  Climbing Chicago Center
09:08AM 41.6681 -87.5889 313° West 194 223 4,000 -540 Descending Chicago Center
09:09AM 41.7036 -87.6383 314° West 191 220 3,000 -1,140 Descending Chicago Center
09:09AM 41.7167 -87.6500 326° Northwest 145 167 2,500 -900 Descending Chicago TRACON
09:10AM 41.7333 -87.6833 304° West 127 146 1,800 -720 Descending Chicago TRACON
09:11AM 41.7667 -87.7333 312° West 130 150 1,100 -720 Descending Chicago TRACON